sensor_id;sensor_type;location;lat;lon;timestamp;P1;durP1;ratioP1;P2;durP2;ratioP2
45326;SDS011;31062;49.678;24.560;2023-04-01T00:02:16;9.02;;;5.60;;
45326;SDS011;31062;49.678;24.560;2023-04-01T00:05:01;7.28;;;5.57;;
45326;SDS011;31062;49.678;24.560;2023-04-01T00:07:46;8.13;;;4.93;;
45326;SDS011;31062;49.678;24.560;2023-04-01T00:10:32;5.28;;;3.83;;
45326;SDS011;31062;49.678;24.560;2023-04-01T00:13:19;6.82;;;4.00;;
45326;SDS011;31062;49.678;24.560;2023-04-01T00:16:05;4.18;;;3.45;;
45326;SDS011;31062;49.678;24.560;2023-04-01T00:19:04;7.47;;;3.75;;
45326;SDS011;31062;49.678;24.560;2023-04-01T00:21:49;4.90;;;3.42;;
45326;SDS011;31062;49.678;24.560;2023-04-01T00:24:35;7.50;;;4.15;;
45326;SDS011;31062;49.678;24.560;2023-04-01T00:27:20;7.05;;;3.80;;
45326;SDS011;31062;49.678;24.560;2023-04-01T00:30:06;6.00;;;3.40;;
45326;SDS011;31062;49.678;24.560;2023-04-01T00:32:52;5.32;;;3.92;;
45326;SDS011;31062;49.678;24.560;2023-04-01T00:35:38;7.97;;;3.80;;
45326;SDS011;31062;49.678;24.560;2023-04-01T00:38:24;6.18;;;4.35;;
45326;SDS011;31062;49.678;24.560;2023-04-01T00:41:10;5.55;;;3.75;;
45326;SDS011;31062;49.678;24.560;2023-04-01T00:44:17;6.57;;;3.97;;
45326;SDS011;31062;49.678;24.560;2023-04-01T00:47:05;7.70;;;3.88;;
45326;SDS011;31062;49.678;24.560;2023-04-01T00:49:51;6.68;;;3.97;;
45326;SDS011;31062;49.678;24.560;2023-04-01T00:52:39;10.27;;;4.65;;
45326;SDS011;31062;49.678;24.560;2023-04-01T00:55:25;8.27;;;4.47;;
45326;SDS011;31062;49.678;24.560;2023-04-01T00:58:14;5.93;;;4.00;;
45326;SDS011;31062;49.678;24.560;2023-04-01T01:01:03;5.85;;;3.88;;
45326;SDS011;31062;49.678;24.560;2023-04-01T01:03:51;5.57;;;4.05;;
45326;SDS011;31062;49.678;24.560;2023-04-01T01:06:52;4.68;;;3.67;;
45326;SDS011;31062;49.678;24.560;2023-04-01T01:16:12;8.75;;;4.13;;
45326;SDS011;31062;49.678;24.560;2023-04-01T01:32:15;6.47;;;4.05;;
45326;SDS011;31062;49.678;24.560;2023-04-01T01:41:11;6.70;;;4.10;;
45326;SDS011;31062;49.678;24.560;2023-04-01T01:43:59;6.03;;;3.95;;
45326;SDS011;31062;49.678;24.560;2023-04-01T01:46:47;7.55;;;4.32;;
45326;SDS011;31062;49.678;24.560;2023-04-01T01:49:34;6.43;;;4.20;;
45326;SDS011;31062;49.678;24.560;2023-04-01T01:52:22;8.02;;;4.57;;
45326;SDS011;31062;49.678;24.560;2023-04-01T01:55:29;6.18;;;4.65;;
45326;SDS011;31062;49.678;24.560;2023-04-01T01:58:32;6.53;;;4.95;;
45326;SDS011;31062;49.678;24.560;2023-04-01T02:01:28;8.13;;;4.88;;
45326;SDS011;31062;49.678;24.560;2023-04-01T02:04:24;6.07;;;4.57;;
45326;SDS011;31062;49.678;24.560;2023-04-01T02:07:16;11.73;;;5.10;;
45326;SDS011;31062;49.678;24.560;2023-04-01T02:10:09;4.80;;;3.78;;
45326;SDS011;31062;49.678;24.560;2023-04-01T02:12:56;6.57;;;4.00;;
45326;SDS011;31062;49.678;24.560;2023-04-01T02:15:45;7.55;;;4.43;;
45326;SDS011;31062;49.678;24.560;2023-04-01T02:18:35;6.10;;;4.18;;
45326;SDS011;31062;49.678;24.560;2023-04-01T02:21:24;6.90;;;4.60;;
45326;SDS011;31062;49.678;24.560;2023-04-01T02:24:15;5.53;;;3.92;;
45326;SDS011;31062;49.678;24.560;2023-04-01T02:27:01;6.35;;;3.83;;
45326;SDS011;31062;49.678;24.560;2023-04-01T02:29:48;9.18;;;4.03;;
45326;SDS011;31062;49.678;24.560;2023-04-01T02:32:34;4.95;;;3.50;;
45326;SDS011;31062;49.678;24.560;2023-04-01T02:35:23;5.45;;;3.60;;
45326;SDS011;31062;49.678;24.560;2023-04-01T02:38:09;5.65;;;3.30;;
45326;SDS011;31062;49.678;24.560;2023-04-01T02:40:59;4.47;;;3.25;;
45326;SDS011;31062;49.678;24.560;2023-04-01T02:43:46;4.40;;;3.08;;
45326;SDS011;31062;49.678;24.560;2023-04-01T02:46:32;6.35;;;3.63;;
45326;SDS011;31062;49.678;24.560;2023-04-01T02:49:17;8.93;;;3.65;;
45326;SDS011;31062;49.678;24.560;2023-04-01T02:52:03;4.72;;;3.05;;
45326;SDS011;31062;49.678;24.560;2023-04-01T02:54:49;3.80;;;3.28;;
45326;SDS011;31062;49.678;24.560;2023-04-01T02:57:35;5.68;;;3.55;;
45326;SDS011;31062;49.678;24.560;2023-04-01T03:00:20;8.98;;;3.70;;
45326;SDS011;31062;49.678;24.560;2023-04-01T03:03:06;7.05;;;3.58;;
45326;SDS011;31062;49.678;24.560;2023-04-01T03:05:51;7.15;;;3.55;;
45326;SDS011;31062;49.678;24.560;2023-04-01T03:08:40;6.13;;;3.70;;
45326;SDS011;31062;49.678;24.560;2023-04-01T03:11:27;5.32;;;3.40;;
45326;SDS011;31062;49.678;24.560;2023-04-01T03:14:12;4.90;;;3.67;;
45326;SDS011;31062;49.678;24.560;2023-04-01T03:16:58;4.55;;;3.22;;
45326;SDS011;31062;49.678;24.560;2023-04-01T03:19:44;4.43;;;3.47;;
45326;SDS011;31062;49.678;24.560;2023-04-01T03:22:31;4.65;;;3.70;;
45326;SDS011;31062;49.678;24.560;2023-04-01T03:25:17;5.93;;;3.35;;
45326;SDS011;31062;49.678;24.560;2023-04-01T03:28:03;5.13;;;3.50;;
45326;SDS011;31062;49.678;24.560;2023-04-01T03:30:49;6.82;;;4.20;;
45326;SDS011;31062;49.678;24.560;2023-04-01T03:33:35;7.10;;;3.78;;
45326;SDS011;31062;49.678;24.560;2023-04-01T03:36:20;5.88;;;3.85;;
45326;SDS011;31062;49.678;24.560;2023-04-01T03:39:06;7.07;;;4.15;;
45326;SDS011;31062;49.678;24.560;2023-04-01T03:41:58;8.48;;;3.85;;
45326;SDS011;31062;49.678;24.560;2023-04-01T03:44:44;5.60;;;3.88;;
45326;SDS011;31062;49.678;24.560;2023-04-01T03:47:30;6.93;;;3.65;;
45326;SDS011;31062;49.678;24.560;2023-04-01T03:50:15;6.20;;;3.53;;
45326;SDS011;31062;49.678;24.560;2023-04-01T03:53:01;6.60;;;3.50;;
45326;SDS011;31062;49.678;24.560;2023-04-01T03:55:47;8.93;;;4.53;;
45326;SDS011;31062;49.678;24.560;2023-04-01T03:58:32;6.13;;;3.63;;
45326;SDS011;31062;49.678;24.560;2023-04-01T04:01:21;5.85;;;3.85;;
45326;SDS011;31062;49.678;24.560;2023-04-01T04:04:12;6.25;;;3.55;;
45326;SDS011;31062;49.678;24.560;2023-04-01T04:07:00;4.90;;;3.30;;
45326;SDS011;31062;49.678;24.560;2023-04-01T04:09:51;7.47;;;4.00;;
45326;SDS011;31062;49.678;24.560;2023-04-01T04:12:36;5.65;;;3.47;;
45326;SDS011;31062;49.678;24.560;2023-04-01T04:15:22;3.97;;;3.10;;
45326;SDS011;31062;49.678;24.560;2023-04-01T04:18:08;6.68;;;3.90;;
45326;SDS011;31062;49.678;24.560;2023-04-01T04:20:54;4.65;;;3.30;;
45326;SDS011;31062;49.678;24.560;2023-04-01T04:23:40;6.60;;;3.85;;
45326;SDS011;31062;49.678;24.560;2023-04-01T04:26:26;5.13;;;3.00;;
45326;SDS011;31062;49.678;24.560;2023-04-01T04:29:17;4.60;;;3.45;;
45326;SDS011;31062;49.678;24.560;2023-04-01T04:32:02;7.15;;;3.65;;
45326;SDS011;31062;49.678;24.560;2023-04-01T04:34:48;3.83;;;3.35;;
45326;SDS011;31062;49.678;24.560;2023-04-01T04:37:34;4.10;;;3.33;;
45326;SDS011;31062;49.678;24.560;2023-04-01T04:40:19;7.78;;;3.78;;
45326;SDS011;31062;49.678;24.560;2023-04-01T04:43:05;4.65;;;3.42;;
45326;SDS011;31062;49.678;24.560;2023-04-01T04:45:51;5.97;;;3.88;;
45326;SDS011;31062;49.678;24.560;2023-04-01T04:48:36;6.85;;;3.97;;
45326;SDS011;31062;49.678;24.560;2023-04-01T04:51:22;5.15;;;3.75;;
45326;SDS011;31062;49.678;24.560;2023-04-01T04:54:08;4.82;;;4.13;;
45326;SDS011;31062;49.678;24.560;2023-04-01T04:57:10;5.30;;;3.17;;
45326;SDS011;31062;49.678;24.560;2023-04-01T05:00:03;5.22;;;3.65;;
45326;SDS011;31062;49.678;24.560;2023-04-01T05:03:12;4.05;;;3.63;;
45326;SDS011;31062;49.678;24.560;2023-04-01T05:05:58;6.15;;;3.78;;
45326;SDS011;31062;49.678;24.560;2023-04-01T05:08:44;7.57;;;3.50;;
45326;SDS011;31062;49.678;24.560;2023-04-01T05:11:30;6.70;;;4.43;;
45326;SDS011;31062;49.678;24.560;2023-04-01T05:14:15;5.45;;;3.80;;
45326;SDS011;31062;49.678;24.560;2023-04-01T05:17:09;8.18;;;4.72;;
45326;SDS011;31062;49.678;24.560;2023-04-01T05:19:56;11.85;;;4.80;;
45326;SDS011;31062;49.678;24.560;2023-04-01T05:22:42;8.07;;;4.18;;
45326;SDS011;31062;49.678;24.560;2023-04-01T05:25:28;7.32;;;4.22;;
45326;SDS011;31062;49.678;24.560;2023-04-01T05:28:15;9.80;;;5.72;;
45326;SDS011;31062;49.678;24.560;2023-04-01T05:31:03;8.35;;;6.32;;
45326;SDS011;31062;49.678;24.560;2023-04-01T05:33:53;11.23;;;5.72;;
45326;SDS011;31062;49.678;24.560;2023-04-01T05:36:39;9.80;;;5.15;;
45326;SDS011;31062;49.678;24.560;2023-04-01T05:39:26;10.63;;;5.40;;
45326;SDS011;31062;49.678;24.560;2023-04-01T05:42:12;11.10;;;5.38;;
45326;SDS011;31062;49.678;24.560;2023-04-01T05:44:59;8.52;;;5.25;;
45326;SDS011;31062;49.678;24.560;2023-04-01T05:48:05;6.00;;;4.53;;
45326;SDS011;31062;49.678;24.560;2023-04-01T05:50:56;7.30;;;4.90;;
45326;SDS011;31062;49.678;24.560;2023-04-01T05:53:41;10.23;;;4.55;;
45326;SDS011;31062;49.678;24.560;2023-04-01T05:56:27;5.18;;;4.15;;
45326;SDS011;31062;49.678;24.560;2023-04-01T05:59:14;4.80;;;4.35;;
45326;SDS011;31062;49.678;24.560;2023-04-01T06:02:00;4.50;;;3.90;;
45326;SDS011;31062;49.678;24.560;2023-04-01T06:04:46;6.25;;;4.50;;
45326;SDS011;31062;49.678;24.560;2023-04-01T06:07:32;6.97;;;4.65;;
45326;SDS011;31062;49.678;24.560;2023-04-01T06:10:18;9.93;;;4.63;;
45326;SDS011;31062;49.678;24.560;2023-04-01T06:13:07;6.10;;;3.90;;
45326;SDS011;31062;49.678;24.560;2023-04-01T06:22:19;7.78;;;4.60;;
45326;SDS011;31062;49.678;24.560;2023-04-01T06:25:31;6.68;;;4.00;;
45326;SDS011;31062;49.678;24.560;2023-04-01T06:37:14;3.15;;;2.85;;
45326;SDS011;31062;49.678;24.560;2023-04-01T06:50:51;4.93;;;2.97;;
45326;SDS011;31062;49.678;24.560;2023-04-01T06:54:05;3.35;;;2.22;;
45326;SDS011;31062;49.678;24.560;2023-04-01T07:00:13;3.08;;;2.72;;
45326;SDS011;31062;49.678;24.560;2023-04-01T07:06:25;2.10;;;1.90;;
45326;SDS011;31062;49.678;24.560;2023-04-01T07:09:21;2.65;;;2.15;;
45326;SDS011;31062;49.678;24.560;2023-04-01T07:12:40;2.90;;;2.70;;
45326;SDS011;31062;49.678;24.560;2023-04-01T07:15:56;4.35;;;2.97;;
45326;SDS011;31062;49.678;24.560;2023-04-01T07:18:56;3.65;;;2.90;;
45326;SDS011;31062;49.678;24.560;2023-04-01T07:25:31;5.78;;;2.60;;
45326;SDS011;31062;49.678;24.560;2023-04-01T07:28:57;2.13;;;1.92;;
45326;SDS011;31062;49.678;24.560;2023-04-01T07:32:13;4.05;;;2.67;;
45326;SDS011;31062;49.678;24.560;2023-04-01T07:35:27;3.85;;;2.97;;
45326;SDS011;31062;49.678;24.560;2023-04-01T07:48:18;5.20;;;3.97;;
45326;SDS011;31062;49.678;24.560;2023-04-01T07:57:02;2.83;;;2.28;;
45326;SDS011;31062;49.678;24.560;2023-04-01T08:06:05;1.70;;;1.60;;
45326;SDS011;31062;49.678;24.560;2023-04-01T08:09:06;10.38;;;9.57;;
45326;SDS011;31062;49.678;24.560;2023-04-01T08:19:25;4.93;;;3.60;;
45326;SDS011;31062;49.678;24.560;2023-04-01T08:22:40;5.70;;;3.40;;
45326;SDS011;31062;49.678;24.560;2023-04-01T08:25:42;7.32;;;3.55;;
45326;SDS011;31062;49.678;24.560;2023-04-01T08:28:39;5.07;;;3.38;;
45326;SDS011;31062;49.678;24.560;2023-04-01T08:31:32;5.03;;;4.00;;
45326;SDS011;31062;49.678;24.560;2023-04-01T08:37:24;6.53;;;3.50;;
45326;SDS011;31062;49.678;24.560;2023-04-01T09:09:13;4.07;;;3.67;;
45326;SDS011;31062;49.678;24.560;2023-04-01T09:25:41;5.25;;;3.47;;
45326;SDS011;31062;49.678;24.560;2023-04-01T09:44:11;7.70;;;3.15;;
45326;SDS011;31062;49.678;24.560;2023-04-01T09:50:32;4.85;;;2.72;;
45326;SDS011;31062;49.678;24.560;2023-04-01T09:59:27;4.20;;;3.40;;
45326;SDS011;31062;49.678;24.560;2023-04-01T10:12:46;9.43;;;5.30;;
45326;SDS011;31062;49.678;24.560;2023-04-01T10:18:59;4.60;;;3.17;;
45326;SDS011;31062;49.678;24.560;2023-04-01T10:54:06;2.72;;;2.22;;
45326;SDS011;31062;49.678;24.560;2023-04-01T11:09:13;2.70;;;1.88;;
45326;SDS011;31062;49.678;24.560;2023-04-01T11:24:40;3.55;;;2.28;;
45326;SDS011;31062;49.678;24.560;2023-04-01T11:34:13;4.90;;;2.20;;
45326;SDS011;31062;49.678;24.560;2023-04-01T11:37:22;4.70;;;2.22;;
45326;SDS011;31062;49.678;24.560;2023-04-01T11:40:45;3.92;;;2.40;;
45326;SDS011;31062;49.678;24.560;2023-04-01T11:47:20;3.17;;;2.75;;
45326;SDS011;31062;49.678;24.560;2023-04-01T11:53:28;3.03;;;2.25;;
45326;SDS011;31062;49.678;24.560;2023-04-01T11:56:49;3.40;;;2.42;;
45326;SDS011;31062;49.678;24.560;2023-04-01T12:02:48;20.70;;;4.05;;
45326;SDS011;31062;49.678;24.560;2023-04-01T12:06:41;4.43;;;2.63;;
45326;SDS011;31062;49.678;24.560;2023-04-01T12:09:08;4.45;;;2.40;;
45326;SDS011;31062;49.678;24.560;2023-04-01T12:20:10;6.38;;;2.45;;
45326;SDS011;31062;49.678;24.560;2023-04-01T12:46:00;4.63;;;2.20;;
45326;SDS011;31062;49.678;24.560;2023-04-01T12:57:34;4.38;;;2.13;;
45326;SDS011;31062;49.678;24.560;2023-04-01T13:00:30;2.97;;;2.10;;
45326;SDS011;31062;49.678;24.560;2023-04-01T13:12:56;2.95;;;2.60;;
45326;SDS011;31062;49.678;24.560;2023-04-01T13:15:51;2.95;;;1.95;;
45326;SDS011;31062;49.678;24.560;2023-04-01T13:25:10;2.28;;;1.80;;
45326;SDS011;31062;49.678;24.560;2023-04-01T13:28:09;2.57;;;1.40;;
45326;SDS011;31062;49.678;24.560;2023-04-01T13:32:01;2.30;;;1.10;;
45326;SDS011;31062;49.678;24.560;2023-04-01T13:43:15;2.10;;;1.35;;
45326;SDS011;31062;49.678;24.560;2023-04-01T13:59:10;2.38;;;1.20;;
45326;SDS011;31062;49.678;24.560;2023-04-01T14:21:20;3.22;;;1.90;;
45326;SDS011;31062;49.678;24.560;2023-04-01T14:41:35;3.28;;;1.40;;
45326;SDS011;31062;49.678;24.560;2023-04-01T14:47:58;1.42;;;1.17;;
45326;SDS011;31062;49.678;24.560;2023-04-01T14:50:52;3.00;;;2.17;;
45326;SDS011;31062;49.678;24.560;2023-04-01T14:53:44;2.75;;;1.45;;
45326;SDS011;31062;49.678;24.560;2023-04-01T14:57:08;2.85;;;1.40;;
45326;SDS011;31062;49.678;24.560;2023-04-01T15:00:07;4.53;;;2.47;;
45326;SDS011;31062;49.678;24.560;2023-04-01T15:03:09;3.90;;;2.20;;
45326;SDS011;31062;49.678;24.560;2023-04-01T15:09:41;4.25;;;2.90;;
45326;SDS011;31062;49.678;24.560;2023-04-01T15:13:05;1.73;;;1.63;;
45326;SDS011;31062;49.678;24.560;2023-04-01T15:29:18;3.83;;;2.70;;
45326;SDS011;31062;49.678;24.560;2023-04-01T15:37:59;5.93;;;1.77;;
45326;SDS011;31062;49.678;24.560;2023-04-01T15:41:16;2.90;;;1.73;;
45326;SDS011;31062;49.678;24.560;2023-04-01T15:47:32;3.25;;;1.55;;
45326;SDS011;31062;49.678;24.560;2023-04-01T15:50:28;2.10;;;1.58;;
45326;SDS011;31062;49.678;24.560;2023-04-01T16:02:18;4.20;;;3.80;;
45326;SDS011;31062;49.678;24.560;2023-04-01T16:05:30;3.35;;;2.30;;
45326;SDS011;31062;49.678;24.560;2023-04-01T16:11:51;5.55;;;3.90;;
45326;SDS011;31062;49.678;24.560;2023-04-01T16:14:44;5.63;;;3.38;;
45326;SDS011;31062;49.678;24.560;2023-04-01T16:18:22;2.60;;;2.40;;
45326;SDS011;31062;49.678;24.560;2023-04-01T16:21:06;2.22;;;1.80;;
45326;SDS011;31062;49.678;24.560;2023-04-01T16:27:33;7.93;;;2.10;;
45326;SDS011;31062;49.678;24.560;2023-04-01T16:30:26;3.63;;;2.22;;
45326;SDS011;31062;49.678;24.560;2023-04-01T16:33:37;15.73;;;9.13;;
45326;SDS011;31062;49.678;24.560;2023-04-01T16:36:28;5.68;;;3.83;;
45326;SDS011;31062;49.678;24.560;2023-04-01T16:47:54;4.78;;;2.17;;
45326;SDS011;31062;49.678;24.560;2023-04-01T16:50:55;2.40;;;2.10;;
45326;SDS011;31062;49.678;24.560;2023-04-01T16:53:49;4.03;;;1.83;;
45326;SDS011;31062;49.678;24.560;2023-04-01T16:56:54;2.97;;;1.88;;
45326;SDS011;31062;49.678;24.560;2023-04-01T17:00:02;3.45;;;2.20;;
45326;SDS011;31062;49.678;24.560;2023-04-01T17:11:49;2.88;;;2.40;;
45326;SDS011;31062;49.678;24.560;2023-04-01T17:15:02;2.88;;;2.67;;
45326;SDS011;31062;49.678;24.560;2023-04-01T17:18:23;5.63;;;3.90;;
45326;SDS011;31062;49.678;24.560;2023-04-01T17:21:15;9.43;;;4.93;;
45326;SDS011;31062;49.678;24.560;2023-04-01T17:33:38;10.02;;;5.78;;
45326;SDS011;31062;49.678;24.560;2023-04-01T17:42:43;7.15;;;4.10;;
45326;SDS011;31062;49.678;24.560;2023-04-01T17:45:43;6.95;;;5.20;;
45326;SDS011;31062;49.678;24.560;2023-04-01T17:51:37;7.63;;;5.88;;
45326;SDS011;31062;49.678;24.560;2023-04-01T17:54:42;13.80;;;7.78;;
45326;SDS011;31062;49.678;24.560;2023-04-01T18:16:18;13.52;;;7.93;;
45326;SDS011;31062;49.678;24.560;2023-04-01T18:22:09;14.93;;;7.22;;
45326;SDS011;31062;49.678;24.560;2023-04-01T18:31:17;6.78;;;5.00;;
45326;SDS011;31062;49.678;24.560;2023-04-01T18:34:12;7.05;;;4.72;;
45326;SDS011;31062;49.678;24.560;2023-04-01T18:47:11;11.35;;;5.18;;
45326;SDS011;31062;49.678;24.560;2023-04-01T18:56:03;4.83;;;2.80;;
45326;SDS011;31062;49.678;24.560;2023-04-01T18:59:02;3.10;;;2.63;;
45326;SDS011;31062;49.678;24.560;2023-04-01T19:05:07;3.22;;;2.58;;
45326;SDS011;31062;49.678;24.560;2023-04-01T19:08:12;3.60;;;2.70;;
45326;SDS011;31062;49.678;24.560;2023-04-01T19:17:35;6.10;;;3.40;;
45326;SDS011;31062;49.678;24.560;2023-04-01T19:20:32;5.93;;;2.80;;
45326;SDS011;31062;49.678;24.560;2023-04-01T19:29:26;11.68;;;6.55;;
45326;SDS011;31062;49.678;24.560;2023-04-01T19:38:38;8.23;;;5.50;;
45326;SDS011;31062;49.678;24.560;2023-04-01T19:41:39;9.00;;;6.50;;
45326;SDS011;31062;49.678;24.560;2023-04-01T19:44:41;14.40;;;5.95;;
45326;SDS011;31062;49.678;24.560;2023-04-01T19:57:15;3.03;;;2.70;;
45326;SDS011;31062;49.678;24.560;2023-04-01T20:21:30;7.40;;;5.07;;
45326;SDS011;31062;49.678;24.560;2023-04-01T20:24:21;9.43;;;4.13;;
45326;SDS011;31062;49.678;24.560;2023-04-01T20:42:39;25.05;;;14.30;;
45326;SDS011;31062;49.678;24.560;2023-04-01T20:52:25;14.15;;;8.05;;
45326;SDS011;31062;49.678;24.560;2023-04-01T21:01:17;18.88;;;9.73;;
45326;SDS011;31062;49.678;24.560;2023-04-01T21:07:28;10.90;;;6.78;;
45326;SDS011;31062;49.678;24.560;2023-04-01T21:10:49;18.60;;;9.52;;
45326;SDS011;31062;49.678;24.560;2023-04-01T21:13:41;15.77;;;7.28;;
45326;SDS011;31062;49.678;24.560;2023-04-01T21:16:39;13.75;;;6.68;;
45326;SDS011;31062;49.678;24.560;2023-04-01T21:25:22;11.45;;;6.28;;
45326;SDS011;31062;49.678;24.560;2023-04-01T21:40:31;21.95;;;11.63;;
45326;SDS011;31062;49.678;24.560;2023-04-01T22:08:41;7.70;;;5.00;;
45326;SDS011;31062;49.678;24.560;2023-04-01T22:20:28;4.78;;;2.95;;
45326;SDS011;31062;49.678;24.560;2023-04-01T22:26:32;2.92;;;2.60;;
45326;SDS011;31062;49.678;24.560;2023-04-01T22:29:24;4.63;;;2.80;;
45326;SDS011;31062;49.678;24.560;2023-04-01T22:32:28;6.55;;;2.90;;
45326;SDS011;31062;49.678;24.560;2023-04-01T22:38:33;3.50;;;2.60;;
45326;SDS011;31062;49.678;24.560;2023-04-01T22:53:59;4.05;;;2.72;;
45326;SDS011;31062;49.678;24.560;2023-04-01T22:56:59;2.88;;;2.30;;
45326;SDS011;31062;49.678;24.560;2023-04-01T22:59:54;3.97;;;3.00;;
45326;SDS011;31062;49.678;24.560;2023-04-01T23:05:52;2.60;;;2.40;;
45326;SDS011;31062;49.678;24.560;2023-04-01T23:11:33;4.30;;;2.28;;
45326;SDS011;31062;49.678;24.560;2023-04-01T23:29:40;6.03;;;3.10;;
45326;SDS011;31062;49.678;24.560;2023-04-01T23:32:27;6.63;;;2.90;;
45326;SDS011;31062;49.678;24.560;2023-04-01T23:35:14;4.03;;;3.08;;
45326;SDS011;31062;49.678;24.560;2023-04-01T23:38:02;5.80;;;3.90;;
45326;SDS011;31062;49.678;24.560;2023-04-01T23:40:48;10.23;;;5.72;;
45326;SDS011;31062;49.678;24.560;2023-04-01T23:43:37;6.90;;;4.45;;
45326;SDS011;31062;49.678;24.560;2023-04-01T23:46:25;4.35;;;2.63;;
45326;SDS011;31062;49.678;24.560;2023-04-01T23:49:17;3.20;;;2.15;;
45326;SDS011;31062;49.678;24.560;2023-04-01T23:52:23;2.10;;;1.60;;
45326;SDS011;31062;49.678;24.560;2023-04-01T23:55:19;1.95;;;1.75;;
